メインページ
METAR-TAF:

METAR-TAF

空港 :

バーレーン, バーレーン

バーレーン国際空港

緯度: 26-16N, 経度: 050-39E, 海抜: 2m

現時点の気象観測

当レポートは8分前の10:30(UTC)に作成
北東の風 9kt、から東/北東の間で変化する
気温 28°C
湿度 55%
気圧 1018 hPa
視程10km以上
高度3000ftの雲はほとんどない

METAR: OBBI 191030Z 05009KT 010V070 9999 FEW030 28/18 Q1018 NOSIG

時間: 13:38 (10:38 UTC)

予報

当レポートは5時間38分前の05:00(UTC)に作成
予報は19日の 06時(UTC)から 20日の 12時(UTC)まで有効
東/北東の風 8kt
視程10km以上
高度4000ftの雲は散在している

TAF: OBBI 190500Z 1906/2012 07008KT 9999 SCT040

4,000以上の空港の気象観測と天気予報(METAR報とTAF報)

利用可能な観測所は地図上に黄色い丸と赤い丸で示す。

丸の上にカーソルを重ねると観測所名を参照できる。

次にクリックすると気象観測と天気予報を参照できる。

マップの切り替え:黒色「×」印の緑ボタンをクリックして拡大、「-」印の緑ボタンをクリックして縮小、緑色の三角印をクリックして隣りの地図に切り替え


METAR-TAF: